sensor_id;sensor_type;location;lat;lon;timestamp;P1;durP1;ratioP1;P2;durP2;ratioP2
22614;SDS011;11474;50.790;0.298;2023-04-28T00:00:43;2.17;;;1.65;;
22614;SDS011;11474;50.790;0.298;2023-04-28T00:03:11;3.25;;;1.70;;
22614;SDS011;11474;50.790;0.298;2023-04-28T00:05:37;2.75;;;1.85;;
22614;SDS011;11474;50.790;0.298;2023-04-28T00:08:03;2.05;;;1.58;;
22614;SDS011;11474;50.790;0.298;2023-04-28T00:10:30;1.13;;;1.10;;
22614;SDS011;11474;50.790;0.298;2023-04-28T00:12:56;1.65;;;1.20;;
22614;SDS011;11474;50.790;0.298;2023-04-28T00:15:22;1.10;;;1.05;;
22614;SDS011;11474;50.790;0.298;2023-04-28T00:17:48;1.20;;;1.10;;
22614;SDS011;11474;50.790;0.298;2023-04-28T00:20:14;1.08;;;0.98;;
22614;SDS011;11474;50.790;0.298;2023-04-28T00:22:40;2.53;;;1.10;;
22614;SDS011;11474;50.790;0.298;2023-04-28T00:25:07;1.70;;;1.13;;
22614;SDS011;11474;50.790;0.298;2023-04-28T00:27:33;1.20;;;1.10;;
22614;SDS011;11474;50.790;0.298;2023-04-28T00:29:59;2.78;;;1.20;;
22614;SDS011;11474;50.790;0.298;2023-04-28T00:32:25;1.83;;;1.10;;
22614;SDS011;11474;50.790;0.298;2023-04-28T00:34:52;1.27;;;1.17;;
22614;SDS011;11474;50.790;0.298;2023-04-28T00:37:18;1.65;;;1.20;;
22614;SDS011;11474;50.790;0.298;2023-04-28T00:39:44;1.95;;;1.15;;
22614;SDS011;11474;50.790;0.298;2023-04-28T00:42:13;2.30;;;1.50;;
22614;SDS011;11474;50.790;0.298;2023-04-28T00:44:40;2.72;;;1.48;;
22614;SDS011;11474;50.790;0.298;2023-04-28T00:47:09;2.42;;;1.48;;
22614;SDS011;11474;50.790;0.298;2023-04-28T00:49:36;1.80;;;1.38;;
22614;SDS011;11474;50.790;0.298;2023-04-28T00:52:03;1.98;;;1.40;;
22614;SDS011;11474;50.790;0.298;2023-04-28T00:54:30;1.30;;;1.20;;
22614;SDS011;11474;50.790;0.298;2023-04-28T00:56:57;2.97;;;1.30;;
22614;SDS011;11474;50.790;0.298;2023-04-28T00:59:23;1.25;;;1.15;;
22614;SDS011;11474;50.790;0.298;2023-04-28T01:01:49;2.50;;;1.60;;
22614;SDS011;11474;50.790;0.298;2023-04-28T01:04:16;2.78;;;1.80;;
22614;SDS011;11474;50.790;0.298;2023-04-28T01:06:45;6.57;;;2.20;;
22614;SDS011;11474;50.790;0.298;2023-04-28T01:09:11;4.68;;;2.45;;
22614;SDS011;11474;50.790;0.298;2023-04-28T01:11:37;5.95;;;2.83;;
22614;SDS011;11474;50.790;0.298;2023-04-28T01:14:03;5.20;;;3.10;;
22614;SDS011;11474;50.790;0.298;2023-04-28T01:16:30;7.13;;;3.70;;
22614;SDS011;11474;50.790;0.298;2023-04-28T01:18:56;8.98;;;3.78;;
22614;SDS011;11474;50.790;0.298;2023-04-28T01:21:26;9.38;;;3.60;;
22614;SDS011;11474;50.790;0.298;2023-04-28T01:23:59;6.75;;;3.60;;
22614;SDS011;11474;50.790;0.298;2023-04-28T01:26:26;7.80;;;3.88;;
22614;SDS011;11474;50.790;0.298;2023-04-28T01:28:52;6.20;;;3.50;;
22614;SDS011;11474;50.790;0.298;2023-04-28T01:31:18;8.90;;;3.70;;
22614;SDS011;11474;50.790;0.298;2023-04-28T01:33:45;8.98;;;3.90;;
22614;SDS011;11474;50.790;0.298;2023-04-28T01:36:11;9.80;;;4.50;;
22614;SDS011;11474;50.790;0.298;2023-04-28T01:38:37;10.55;;;4.80;;
22614;SDS011;11474;50.790;0.298;2023-04-28T01:41:04;11.20;;;4.75;;
22614;SDS011;11474;50.790;0.298;2023-04-28T01:43:30;8.80;;;4.22;;
22614;SDS011;11474;50.790;0.298;2023-04-28T01:45:56;9.25;;;4.30;;
22614;SDS011;11474;50.790;0.298;2023-04-28T01:48:22;11.57;;;3.80;;
22614;SDS011;11474;50.790;0.298;2023-04-28T01:50:48;9.25;;;4.05;;
22614;SDS011;11474;50.790;0.298;2023-04-28T01:53:14;11.68;;;4.60;;
22614;SDS011;11474;50.790;0.298;2023-04-28T01:55:44;9.63;;;4.28;;
22614;SDS011;11474;50.790;0.298;2023-04-28T01:58:10;8.55;;;4.20;;
22614;SDS011;11474;50.790;0.298;2023-04-28T02:00:37;9.18;;;3.88;;
22614;SDS011;11474;50.790;0.298;2023-04-28T02:03:03;9.20;;;3.70;;
22614;SDS011;11474;50.790;0.298;2023-04-28T02:05:29;9.00;;;3.67;;
22614;SDS011;11474;50.790;0.298;2023-04-28T02:07:55;7.10;;;3.80;;
22614;SDS011;11474;50.790;0.298;2023-04-28T02:10:21;9.25;;;4.10;;
22614;SDS011;11474;50.790;0.298;2023-04-28T02:12:47;9.07;;;4.13;;
22614;SDS011;11474;50.790;0.298;2023-04-28T02:15:13;10.40;;;4.25;;
22614;SDS011;11474;50.790;0.298;2023-04-28T02:17:39;10.43;;;3.83;;
22614;SDS011;11474;50.790;0.298;2023-04-28T02:20:05;8.63;;;4.32;;
22614;SDS011;11474;50.790;0.298;2023-04-28T02:22:39;11.77;;;4.10;;
22614;SDS011;11474;50.790;0.298;2023-04-28T02:25:06;10.65;;;4.38;;
22614;SDS011;11474;50.790;0.298;2023-04-28T02:27:33;13.38;;;4.40;;
22614;SDS011;11474;50.790;0.298;2023-04-28T02:30:00;9.77;;;4.50;;
22614;SDS011;11474;50.790;0.298;2023-04-28T02:32:26;10.30;;;4.33;;
22614;SDS011;11474;50.790;0.298;2023-04-28T02:34:53;14.55;;;4.75;;
22614;SDS011;11474;50.790;0.298;2023-04-28T02:37:19;9.00;;;3.97;;
22614;SDS011;11474;50.790;0.298;2023-04-28T02:39:45;11.77;;;3.78;;
22614;SDS011;11474;50.790;0.298;2023-04-28T02:42:11;6.85;;;3.20;;
22614;SDS011;11474;50.790;0.298;2023-04-28T02:44:38;7.57;;;3.20;;
22614;SDS011;11474;50.790;0.298;2023-04-28T02:47:04;7.15;;;2.60;;
22614;SDS011;11474;50.790;0.298;2023-04-28T02:49:30;7.32;;;2.80;;
22614;SDS011;11474;50.790;0.298;2023-04-28T02:51:56;9.02;;;3.33;;
22614;SDS011;11474;50.790;0.298;2023-04-28T02:54:22;5.25;;;2.45;;
22614;SDS011;11474;50.790;0.298;2023-04-28T02:56:55;3.92;;;2.20;;
22614;SDS011;11474;50.790;0.298;2023-04-28T02:59:21;3.58;;;1.92;;
22614;SDS011;11474;50.790;0.298;2023-04-28T03:01:48;4.88;;;2.30;;
22614;SDS011;11474;50.790;0.298;2023-04-28T03:04:14;7.20;;;2.67;;
22614;SDS011;11474;50.790;0.298;2023-04-28T03:06:41;7.07;;;2.83;;
22614;SDS011;11474;50.790;0.298;2023-04-28T03:09:07;9.35;;;3.50;;
22614;SDS011;11474;50.790;0.298;2023-04-28T03:11:33;5.95;;;2.75;;
22614;SDS011;11474;50.790;0.298;2023-04-28T03:13:59;10.32;;;2.78;;
22614;SDS011;11474;50.790;0.298;2023-04-28T03:16:25;4.18;;;2.47;;
22614;SDS011;11474;50.790;0.298;2023-04-28T03:18:52;4.72;;;2.50;;
22614;SDS011;11474;50.790;0.298;2023-04-28T03:21:18;9.65;;;3.13;;
22614;SDS011;11474;50.790;0.298;2023-04-28T03:23:44;8.63;;;3.50;;
22614;SDS011;11474;50.790;0.298;2023-04-28T03:26:10;10.80;;;3.58;;
22614;SDS011;11474;50.790;0.298;2023-04-28T03:28:36;12.90;;;3.40;;
22614;SDS011;11474;50.790;0.298;2023-04-28T03:31:03;8.03;;;2.60;;
22614;SDS011;11474;50.790;0.298;2023-04-28T03:33:29;9.90;;;2.65;;
22614;SDS011;11474;50.790;0.298;2023-04-28T03:35:55;9.23;;;2.50;;
22614;SDS011;11474;50.790;0.298;2023-04-28T03:38:21;4.10;;;1.88;;
22614;SDS011;11474;50.790;0.298;2023-04-28T03:40:47;7.40;;;2.37;;
22614;SDS011;11474;50.790;0.298;2023-04-28T03:43:13;5.53;;;2.35;;
22614;SDS011;11474;50.790;0.298;2023-04-28T03:45:39;7.87;;;2.53;;
22614;SDS011;11474;50.790;0.298;2023-04-28T03:48:06;7.78;;;2.72;;
22614;SDS011;11474;50.790;0.298;2023-04-28T03:50:32;7.80;;;2.30;;
22614;SDS011;11474;50.790;0.298;2023-04-28T03:52:58;7.17;;;2.60;;
22614;SDS011;11474;50.790;0.298;2023-04-28T03:55:24;8.75;;;2.50;;
22614;SDS011;11474;50.790;0.298;2023-04-28T03:57:51;6.97;;;2.25;;
22614;SDS011;11474;50.790;0.298;2023-04-28T04:00:17;8.85;;;2.35;;
22614;SDS011;11474;50.790;0.298;2023-04-28T04:02:43;8.52;;;1.98;;
22614;SDS011;11474;50.790;0.298;2023-04-28T04:05:09;4.35;;;1.88;;
22614;SDS011;11474;50.790;0.298;2023-04-28T04:07:35;5.80;;;2.00;;
22614;SDS011;11474;50.790;0.298;2023-04-28T04:10:01;5.95;;;2.03;;
22614;SDS011;11474;50.790;0.298;2023-04-28T04:12:27;8.77;;;2.47;;
22614;SDS011;11474;50.790;0.298;2023-04-28T04:14:53;9.63;;;2.58;;
22614;SDS011;11474;50.790;0.298;2023-04-28T04:17:19;7.75;;;2.13;;
22614;SDS011;11474;50.790;0.298;2023-04-28T04:19:45;5.28;;;2.10;;
22614;SDS011;11474;50.790;0.298;2023-04-28T04:22:12;8.68;;;2.00;;
22614;SDS011;11474;50.790;0.298;2023-04-28T04:24:38;6.05;;;2.00;;
22614;SDS011;11474;50.790;0.298;2023-04-28T04:27:04;5.70;;;2.33;;
22614;SDS011;11474;50.790;0.298;2023-04-28T04:29:30;10.18;;;2.20;;
22614;SDS011;11474;50.790;0.298;2023-04-28T04:31:56;5.90;;;2.10;;
22614;SDS011;11474;50.790;0.298;2023-04-28T04:34:22;8.50;;;2.27;;
22614;SDS011;11474;50.790;0.298;2023-04-28T04:36:48;7.65;;;2.20;;
22614;SDS011;11474;50.790;0.298;2023-04-28T04:39:14;8.30;;;2.10;;
22614;SDS011;11474;50.790;0.298;2023-04-28T04:41:40;9.40;;;2.50;;
22614;SDS011;11474;50.790;0.298;2023-04-28T04:44:06;8.10;;;2.30;;
22614;SDS011;11474;50.790;0.298;2023-04-28T04:46:32;11.40;;;2.40;;
22614;SDS011;11474;50.790;0.298;2023-04-28T04:48:58;8.38;;;2.00;;
22614;SDS011;11474;50.790;0.298;2023-04-28T04:51:24;6.80;;;2.22;;
22614;SDS011;11474;50.790;0.298;2023-04-28T04:53:52;7.07;;;2.08;;
22614;SDS011;11474;50.790;0.298;2023-04-28T04:56:18;8.30;;;2.10;;
22614;SDS011;11474;50.790;0.298;2023-04-28T04:58:44;6.97;;;2.10;;
22614;SDS011;11474;50.790;0.298;2023-04-28T05:01:10;6.28;;;1.90;;
22614;SDS011;11474;50.790;0.298;2023-04-28T05:03:36;7.13;;;2.08;;
22614;SDS011;11474;50.790;0.298;2023-04-28T05:06:02;7.35;;;2.00;;
22614;SDS011;11474;50.790;0.298;2023-04-28T05:08:28;6.65;;;1.85;;
22614;SDS011;11474;50.790;0.298;2023-04-28T05:10:54;7.68;;;2.00;;
22614;SDS011;11474;50.790;0.298;2023-04-28T05:13:20;8.18;;;2.10;;
22614;SDS011;11474;50.790;0.298;2023-04-28T05:15:46;7.72;;;2.20;;
22614;SDS011;11474;50.790;0.298;2023-04-28T05:18:12;9.20;;;2.17;;
22614;SDS011;11474;50.790;0.298;2023-04-28T05:20:38;10.75;;;1.95;;
22614;SDS011;11474;50.790;0.298;2023-04-28T05:23:04;10.10;;;2.08;;
22614;SDS011;11474;50.790;0.298;2023-04-28T05:25:31;7.95;;;2.20;;
22614;SDS011;11474;50.790;0.298;2023-04-28T05:27:57;6.97;;;2.10;;
22614;SDS011;11474;50.790;0.298;2023-04-28T05:30:23;11.07;;;2.20;;
22614;SDS011;11474;50.790;0.298;2023-04-28T05:32:49;9.85;;;2.30;;
22614;SDS011;11474;50.790;0.298;2023-04-28T05:35:15;6.25;;;2.08;;
22614;SDS011;11474;50.790;0.298;2023-04-28T05:37:41;14.37;;;2.63;;
22614;SDS011;11474;50.790;0.298;2023-04-28T05:40:09;15.57;;;2.97;;
22614;SDS011;11474;50.790;0.298;2023-04-28T05:42:35;14.52;;;2.80;;
22614;SDS011;11474;50.790;0.298;2023-04-28T05:45:01;7.03;;;2.17;;
22614;SDS011;11474;50.790;0.298;2023-04-28T05:47:27;10.05;;;2.53;;
22614;SDS011;11474;50.790;0.298;2023-04-28T05:49:54;11.63;;;2.63;;
22614;SDS011;11474;50.790;0.298;2023-04-28T05:52:20;12.07;;;2.70;;
22614;SDS011;11474;50.790;0.298;2023-04-28T05:54:46;16.02;;;3.03;;
22614;SDS011;11474;50.790;0.298;2023-04-28T05:57:12;12.43;;;2.80;;
22614;SDS011;11474;50.790;0.298;2023-04-28T05:59:38;10.30;;;2.58;;
22614;SDS011;11474;50.790;0.298;2023-04-28T06:02:04;13.52;;;2.78;;
22614;SDS011;11474;50.790;0.298;2023-04-28T06:04:30;13.07;;;2.58;;
22614;SDS011;11474;50.790;0.298;2023-04-28T06:06:56;12.65;;;2.70;;
22614;SDS011;11474;50.790;0.298;2023-04-28T06:09:22;13.60;;;2.45;;
22614;SDS011;11474;50.790;0.298;2023-04-28T06:11:48;16.75;;;2.80;;
22614;SDS011;11474;50.790;0.298;2023-04-28T06:14:14;13.63;;;2.73;;
22614;SDS011;11474;50.790;0.298;2023-04-28T06:16:40;13.60;;;2.80;;
22614;SDS011;11474;50.790;0.298;2023-04-28T06:19:06;14.13;;;2.92;;
22614;SDS011;11474;50.790;0.298;2023-04-28T06:21:32;12.10;;;2.72;;
22614;SDS011;11474;50.790;0.298;2023-04-28T06:23:58;11.48;;;2.22;;
22614;SDS011;11474;50.790;0.298;2023-04-28T06:26:25;14.35;;;2.53;;
22614;SDS011;11474;50.790;0.298;2023-04-28T06:28:51;12.85;;;2.55;;
22614;SDS011;11474;50.790;0.298;2023-04-28T06:31:17;13.77;;;2.35;;
22614;SDS011;11474;50.790;0.298;2023-04-28T06:33:44;15.55;;;2.72;;
22614;SDS011;11474;50.790;0.298;2023-04-28T06:36:10;12.55;;;2.20;;
22614;SDS011;11474;50.790;0.298;2023-04-28T06:38:38;17.17;;;2.35;;
22614;SDS011;11474;50.790;0.298;2023-04-28T06:41:05;16.00;;;2.27;;
22614;SDS011;11474;50.790;0.298;2023-04-28T06:43:31;14.00;;;2.53;;
22614;SDS011;11474;50.790;0.298;2023-04-28T06:45:57;16.55;;;2.47;;
22614;SDS011;11474;50.790;0.298;2023-04-28T06:48:23;14.05;;;2.40;;
22614;SDS011;11474;50.790;0.298;2023-04-28T06:50:50;13.85;;;2.55;;
22614;SDS011;11474;50.790;0.298;2023-04-28T06:53:16;15.38;;;2.70;;
22614;SDS011;11474;50.790;0.298;2023-04-28T06:55:42;14.80;;;2.97;;
22614;SDS011;11474;50.790;0.298;2023-04-28T06:58:08;13.23;;;2.77;;
22614;SDS011;11474;50.790;0.298;2023-04-28T07:00:35;17.98;;;3.08;;
22614;SDS011;11474;50.790;0.298;2023-04-28T07:03:01;15.90;;;3.30;;
22614;SDS011;11474;50.790;0.298;2023-04-28T07:05:27;21.15;;;3.83;;
22614;SDS011;11474;50.790;0.298;2023-04-28T07:07:53;15.05;;;3.10;;
22614;SDS011;11474;50.790;0.298;2023-04-28T07:10:19;14.18;;;3.08;;
22614;SDS011;11474;50.790;0.298;2023-04-28T07:12:45;12.38;;;3.08;;
22614;SDS011;11474;50.790;0.298;2023-04-28T07:15:11;19.00;;;3.20;;
22614;SDS011;11474;50.790;0.298;2023-04-28T07:17:37;12.13;;;2.90;;
22614;SDS011;11474;50.790;0.298;2023-04-28T07:20:04;16.00;;;3.70;;
22614;SDS011;11474;50.790;0.298;2023-04-28T07:22:31;13.68;;;2.65;;
22614;SDS011;11474;50.790;0.298;2023-04-28T07:24:57;13.68;;;3.13;;
22614;SDS011;11474;50.790;0.298;2023-04-28T07:27:23;12.65;;;3.30;;
22614;SDS011;11474;50.790;0.298;2023-04-28T07:29:49;13.98;;;3.15;;
22614;SDS011;11474;50.790;0.298;2023-04-28T07:32:15;10.52;;;2.88;;
22614;SDS011;11474;50.790;0.298;2023-04-28T07:34:41;16.75;;;3.80;;
22614;SDS011;11474;50.790;0.298;2023-04-28T07:37:07;14.97;;;3.30;;
22614;SDS011;11474;50.790;0.298;2023-04-28T07:39:35;10.60;;;3.08;;
22614;SDS011;11474;50.790;0.298;2023-04-28T07:42:03;11.82;;;3.67;;
22614;SDS011;11474;50.790;0.298;2023-04-28T07:44:29;15.82;;;4.30;;
22614;SDS011;11474;50.790;0.298;2023-04-28T07:46:57;17.63;;;4.70;;
22614;SDS011;11474;50.790;0.298;2023-04-28T07:49:23;15.43;;;3.80;;
22614;SDS011;11474;50.790;0.298;2023-04-28T07:51:50;10.70;;;3.30;;
22614;SDS011;11474;50.790;0.298;2023-04-28T07:54:19;13.20;;;3.10;;
22614;SDS011;11474;50.790;0.298;2023-04-28T07:56:45;12.88;;;3.85;;
22614;SDS011;11474;50.790;0.298;2023-04-28T07:59:11;12.93;;;2.92;;
22614;SDS011;11474;50.790;0.298;2023-04-28T08:01:37;9.13;;;2.10;;
22614;SDS011;11474;50.790;0.298;2023-04-28T08:04:04;8.30;;;2.10;;
22614;SDS011;11474;50.790;0.298;2023-04-28T08:06:30;8.38;;;2.42;;
22614;SDS011;11474;50.790;0.298;2023-04-28T08:08:57;7.80;;;2.30;;
22614;SDS011;11474;50.790;0.298;2023-04-28T08:11:23;6.32;;;1.80;;
22614;SDS011;11474;50.790;0.298;2023-04-28T08:13:49;7.57;;;2.03;;
22614;SDS011;11474;50.790;0.298;2023-04-28T08:16:15;8.32;;;2.20;;
22614;SDS011;11474;50.790;0.298;2023-04-28T08:18:42;9.27;;;1.95;;
22614;SDS011;11474;50.790;0.298;2023-04-28T08:21:09;6.13;;;1.50;;
22614;SDS011;11474;50.790;0.298;2023-04-28T08:23:36;4.82;;;1.65;;
22614;SDS011;11474;50.790;0.298;2023-04-28T08:26:02;6.27;;;1.60;;
22614;SDS011;11474;50.790;0.298;2023-04-28T08:28:28;4.10;;;1.33;;
22614;SDS011;11474;50.790;0.298;2023-04-28T08:30:56;5.68;;;1.50;;
22614;SDS011;11474;50.790;0.298;2023-04-28T08:33:23;9.43;;;1.60;;
22614;SDS011;11474;50.790;0.298;2023-04-28T08:35:49;7.88;;;1.90;;
22614;SDS011;11474;50.790;0.298;2023-04-28T08:38:15;4.72;;;1.50;;
22614;SDS011;11474;50.790;0.298;2023-04-28T08:40:42;7.20;;;1.70;;
22614;SDS011;11474;50.790;0.298;2023-04-28T08:43:08;10.95;;;2.05;;
22614;SDS011;11474;50.790;0.298;2023-04-28T08:45:39;4.85;;;1.70;;
22614;SDS011;11474;50.790;0.298;2023-04-28T08:48:06;9.80;;;1.85;;
22614;SDS011;11474;50.790;0.298;2023-04-28T08:50:38;5.63;;;1.65;;
22614;SDS011;11474;50.790;0.298;2023-04-28T08:53:05;10.30;;;2.00;;
22614;SDS011;11474;50.790;0.298;2023-04-28T08:55:32;5.57;;;1.20;;
22614;SDS011;11474;50.790;0.298;2023-04-28T08:57:58;5.28;;;1.25;;
22614;SDS011;11474;50.790;0.298;2023-04-28T09:00:25;3.10;;;1.05;;
22614;SDS011;11474;50.790;0.298;2023-04-28T09:02:52;4.17;;;1.40;;
22614;SDS011;11474;50.790;0.298;2023-04-28T09:05:18;4.53;;;1.20;;
22614;SDS011;11474;50.790;0.298;2023-04-28T09:07:45;4.30;;;1.33;;
22614;SDS011;11474;50.790;0.298;2023-04-28T09:10:16;4.57;;;1.25;;
22614;SDS011;11474;50.790;0.298;2023-04-28T09:12:43;4.13;;;1.30;;
22614;SDS011;11474;50.790;0.298;2023-04-28T09:15:09;9.10;;;1.70;;
22614;SDS011;11474;50.790;0.298;2023-04-28T09:17:46;5.32;;;1.33;;
22614;SDS011;11474;50.790;0.298;2023-04-28T09:20:22;6.60;;;1.55;;
22614;SDS011;11474;50.790;0.298;2023-04-28T09:22:49;8.35;;;1.67;;
22614;SDS011;11474;50.790;0.298;2023-04-28T09:25:15;6.65;;;1.90;;
22614;SDS011;11474;50.790;0.298;2023-04-28T09:27:42;9.60;;;1.60;;
22614;SDS011;11474;50.790;0.298;2023-04-28T09:30:08;8.98;;;2.00;;
22614;SDS011;11474;50.790;0.298;2023-04-28T09:32:34;9.52;;;2.28;;
22614;SDS011;11474;50.790;0.298;2023-04-28T09:35:00;10.82;;;2.60;;
22614;SDS011;11474;50.790;0.298;2023-04-28T09:37:29;12.38;;;2.60;;
22614;SDS011;11474;50.790;0.298;2023-04-28T09:39:56;11.52;;;2.15;;
22614;SDS011;11474;50.790;0.298;2023-04-28T09:42:41;13.38;;;2.78;;
22614;SDS011;11474;50.790;0.298;2023-04-28T09:45:09;11.60;;;2.80;;
22614;SDS011;11474;50.790;0.298;2023-04-28T09:47:39;13.37;;;2.70;;
22614;SDS011;11474;50.790;0.298;2023-04-28T09:50:06;19.83;;;3.78;;
22614;SDS011;11474;50.790;0.298;2023-04-28T09:52:35;16.35;;;2.90;;
22614;SDS011;11474;50.790;0.298;2023-04-28T09:55:05;15.32;;;2.95;;
22614;SDS011;11474;50.790;0.298;2023-04-28T09:57:33;15.48;;;2.67;;
22614;SDS011;11474;50.790;0.298;2023-04-28T09:59:59;15.43;;;2.73;;
22614;SDS011;11474;50.790;0.298;2023-04-28T10:02:26;14.63;;;2.63;;
22614;SDS011;11474;50.790;0.298;2023-04-28T10:04:52;16.30;;;2.95;;
22614;SDS011;11474;50.790;0.298;2023-04-28T10:07:19;18.55;;;2.88;;
22614;SDS011;11474;50.790;0.298;2023-04-28T10:09:45;17.25;;;3.42;;
22614;SDS011;11474;50.790;0.298;2023-04-28T10:12:14;23.70;;;3.67;;
22614;SDS011;11474;50.790;0.298;2023-04-28T10:14:41;20.55;;;3.33;;
22614;SDS011;11474;50.790;0.298;2023-04-28T10:17:07;18.13;;;2.97;;
22614;SDS011;11474;50.790;0.298;2023-04-28T10:19:33;13.90;;;2.63;;
22614;SDS011;11474;50.790;0.298;2023-04-28T10:24:34;14.93;;;2.90;;
22614;SDS011;11474;50.790;0.298;2023-04-28T10:27:11;16.38;;;2.83;;
22614;SDS011;11474;50.790;0.298;2023-04-28T10:29:37;16.80;;;3.10;;
22614;SDS011;11474;50.790;0.298;2023-04-28T10:32:24;21.17;;;3.88;;
22614;SDS011;11474;50.790;0.298;2023-04-28T10:34:52;15.93;;;2.60;;
22614;SDS011;11474;50.790;0.298;2023-04-28T10:40:30;19.98;;;3.20;;
22614;SDS011;11474;50.790;0.298;2023-04-28T10:42:57;15.02;;;2.92;;
22614;SDS011;11474;50.790;0.298;2023-04-28T10:48:08;13.77;;;2.92;;
22614;SDS011;11474;50.790;0.298;2023-04-28T10:50:34;17.70;;;3.20;;
22614;SDS011;11474;50.790;0.298;2023-04-28T10:53:02;14.70;;;3.00;;
22614;SDS011;11474;50.790;0.298;2023-04-28T10:55:29;14.15;;;2.80;;
22614;SDS011;11474;50.790;0.298;2023-04-28T11:00:39;14.87;;;2.90;;
22614;SDS011;11474;50.790;0.298;2023-04-28T11:03:05;14.82;;;3.50;;
22614;SDS011;11474;50.790;0.298;2023-04-28T11:05:31;16.23;;;2.78;;
22614;SDS011;11474;50.790;0.298;2023-04-28T11:13:30;10.93;;;2.75;;
22614;SDS011;11474;50.790;0.298;2023-04-28T11:16:07;10.65;;;2.60;;
22614;SDS011;11474;50.790;0.298;2023-04-28T11:18:53;14.85;;;2.20;;
22614;SDS011;11474;50.790;0.298;2023-04-28T11:21:20;10.57;;;2.60;;
22614;SDS011;11474;50.790;0.298;2023-04-28T11:23:46;14.98;;;2.47;;
22614;SDS011;11474;50.790;0.298;2023-04-28T11:26:13;12.60;;;2.63;;
22614;SDS011;11474;50.790;0.298;2023-04-28T11:28:49;10.98;;;2.45;;
22614;SDS011;11474;50.790;0.298;2023-04-28T11:31:16;12.57;;;2.58;;
22614;SDS011;11474;50.790;0.298;2023-04-28T11:36:23;19.13;;;3.20;;
22614;SDS011;11474;50.790;0.298;2023-04-28T11:38:50;13.40;;;2.72;;
22614;SDS011;11474;50.790;0.298;2023-04-28T11:41:16;11.93;;;2.55;;
22614;SDS011;11474;50.790;0.298;2023-04-28T11:43:42;16.20;;;2.40;;
22614;SDS011;11474;50.790;0.298;2023-04-28T11:46:08;16.10;;;2.67;;
22614;SDS011;11474;50.790;0.298;2023-04-28T11:48:34;17.67;;;2.70;;
22614;SDS011;11474;50.790;0.298;2023-04-28T11:51:01;7.80;;;2.10;;
22614;SDS011;11474;50.790;0.298;2023-04-28T11:53:40;10.95;;;2.60;;
22614;SDS011;11474;50.790;0.298;2023-04-28T11:56:07;11.27;;;1.95;;
22614;SDS011;11474;50.790;0.298;2023-04-28T11:58:33;11.88;;;2.42;;
22614;SDS011;11474;50.790;0.298;2023-04-28T12:01:09;11.02;;;2.20;;
22614;SDS011;11474;50.790;0.298;2023-04-28T12:03:41;13.98;;;2.25;;
22614;SDS011;11474;50.790;0.298;2023-04-28T12:06:08;12.93;;;2.60;;
22614;SDS011;11474;50.790;0.298;2023-04-28T12:08:34;13.75;;;2.15;;
22614;SDS011;11474;50.790;0.298;2023-04-28T12:11:06;18.13;;;2.73;;
22614;SDS011;11474;50.790;0.298;2023-04-28T12:13:37;18.38;;;2.70;;
22614;SDS011;11474;50.790;0.298;2023-04-28T12:16:04;12.57;;;2.60;;
22614;SDS011;11474;50.790;0.298;2023-04-28T12:18:34;14.75;;;2.47;;
22614;SDS011;11474;50.790;0.298;2023-04-28T12:21:01;15.25;;;2.55;;
22614;SDS011;11474;50.790;0.298;2023-04-28T12:23:31;15.57;;;2.58;;
22614;SDS011;11474;50.790;0.298;2023-04-28T12:25:57;13.85;;;2.60;;
22614;SDS011;11474;50.790;0.298;2023-04-28T12:28:34;12.25;;;2.00;;
22614;SDS011;11474;50.790;0.298;2023-04-28T12:31:02;18.17;;;2.75;;
22614;SDS011;11474;50.790;0.298;2023-04-28T12:33:29;15.13;;;3.30;;
22614;SDS011;11474;50.790;0.298;2023-04-28T12:35:56;15.70;;;2.45;;
22614;SDS011;11474;50.790;0.298;2023-04-28T12:38:22;15.17;;;2.40;;
22614;SDS011;11474;50.790;0.298;2023-04-28T12:40:48;18.37;;;2.33;;
22614;SDS011;11474;50.790;0.298;2023-04-28T12:43:15;13.05;;;2.10;;
22614;SDS011;11474;50.790;0.298;2023-04-28T12:45:41;16.67;;;2.70;;
22614;SDS011;11474;50.790;0.298;2023-04-28T12:48:07;14.30;;;2.22;;
22614;SDS011;11474;50.790;0.298;2023-04-28T12:50:33;10.73;;;2.20;;
22614;SDS011;11474;50.790;0.298;2023-04-28T12:52:59;13.00;;;2.45;;
22614;SDS011;11474;50.790;0.298;2023-04-28T12:55:25;14.63;;;2.70;;
22614;SDS011;11474;50.790;0.298;2023-04-28T12:57:51;15.33;;;2.70;;
22614;SDS011;11474;50.790;0.298;2023-04-28T13:00:17;14.10;;;2.80;;
22614;SDS011;11474;50.790;0.298;2023-04-28T13:02:47;12.10;;;2.50;;
22614;SDS011;11474;50.790;0.298;2023-04-28T13:05:13;10.03;;;2.40;;
22614;SDS011;11474;50.790;0.298;2023-04-28T13:07:40;9.70;;;2.50;;
22614;SDS011;11474;50.790;0.298;2023-04-28T13:10:06;19.30;;;2.80;;
22614;SDS011;11474;50.790;0.298;2023-04-28T13:12:32;11.82;;;2.53;;
22614;SDS011;11474;50.790;0.298;2023-04-28T13:15:02;11.75;;;2.47;;
22614;SDS011;11474;50.790;0.298;2023-04-28T13:17:28;13.40;;;2.47;;
22614;SDS011;11474;50.790;0.298;2023-04-28T13:19:54;12.00;;;2.70;;
22614;SDS011;11474;50.790;0.298;2023-04-28T13:22:20;11.57;;;2.38;;
22614;SDS011;11474;50.790;0.298;2023-04-28T13:24:47;14.25;;;2.60;;
22614;SDS011;11474;50.790;0.298;2023-04-28T13:27:13;10.82;;;2.40;;
22614;SDS011;11474;50.790;0.298;2023-04-28T13:29:39;11.25;;;2.90;;
22614;SDS011;11474;50.790;0.298;2023-04-28T13:32:05;7.70;;;2.20;;
22614;SDS011;11474;50.790;0.298;2023-04-28T13:34:31;10.13;;;2.30;;
22614;SDS011;11474;50.790;0.298;2023-04-28T13:36:57;9.02;;;2.40;;
22614;SDS011;11474;50.790;0.298;2023-04-28T13:39:23;9.47;;;2.30;;
22614;SDS011;11474;50.790;0.298;2023-04-28T13:41:49;8.75;;;2.20;;
22614;SDS011;11474;50.790;0.298;2023-04-28T13:44:15;13.57;;;2.42;;
22614;SDS011;11474;50.790;0.298;2023-04-28T13:46:42;10.85;;;2.00;;
22614;SDS011;11474;50.790;0.298;2023-04-28T13:49:08;11.97;;;2.67;;
22614;SDS011;11474;50.790;0.298;2023-04-28T13:51:34;10.70;;;2.35;;
22614;SDS011;11474;50.790;0.298;2023-04-28T13:54:01;11.43;;;2.90;;
22614;SDS011;11474;50.790;0.298;2023-04-28T13:56:35;15.00;;;2.30;;
22614;SDS011;11474;50.790;0.298;2023-04-28T13:59:01;12.48;;;2.42;;
22614;SDS011;11474;50.790;0.298;2023-04-28T14:01:28;11.07;;;2.10;;
22614;SDS011;11474;50.790;0.298;2023-04-28T14:03:54;11.82;;;2.42;;
22614;SDS011;11474;50.790;0.298;2023-04-28T14:06:20;12.18;;;2.28;;
22614;SDS011;11474;50.790;0.298;2023-04-28T14:08:46;11.95;;;2.42;;
22614;SDS011;11474;50.790;0.298;2023-04-28T14:11:13;16.37;;;2.53;;
22614;SDS011;11474;50.790;0.298;2023-04-28T14:13:39;12.70;;;2.60;;
22614;SDS011;11474;50.790;0.298;2023-04-28T14:16:05;9.80;;;2.05;;
22614;SDS011;11474;50.790;0.298;2023-04-28T14:18:31;11.10;;;2.60;;
22614;SDS011;11474;50.790;0.298;2023-04-28T14:20:58;11.45;;;2.30;;
22614;SDS011;11474;50.790;0.298;2023-04-28T14:23:26;10.88;;;2.03;;
22614;SDS011;11474;50.790;0.298;2023-04-28T14:25:52;9.27;;;2.03;;
22614;SDS011;11474;50.790;0.298;2023-04-28T14:28:20;7.50;;;2.00;;
22614;SDS011;11474;50.790;0.298;2023-04-28T14:30:46;10.90;;;2.40;;
22614;SDS011;11474;50.790;0.298;2023-04-28T14:33:13;11.13;;;2.28;;
22614;SDS011;11474;50.790;0.298;2023-04-28T14:35:40;12.77;;;2.38;;
22614;SDS011;11474;50.790;0.298;2023-04-28T14:38:06;11.20;;;2.03;;
22614;SDS011;11474;50.790;0.298;2023-04-28T14:40:32;16.02;;;2.10;;
22614;SDS011;11474;50.790;0.298;2023-04-28T14:42:58;11.05;;;2.45;;
22614;SDS011;11474;50.790;0.298;2023-04-28T14:45:25;11.02;;;2.00;;
22614;SDS011;11474;50.790;0.298;2023-04-28T14:47:51;11.13;;;2.07;;
22614;SDS011;11474;50.790;0.298;2023-04-28T14:50:17;14.50;;;2.97;;
22614;SDS011;11474;50.790;0.298;2023-04-28T14:52:44;15.00;;;2.20;;
22614;SDS011;11474;50.790;0.298;2023-04-28T14:55:10;12.98;;;2.38;;
22614;SDS011;11474;50.790;0.298;2023-04-28T14:57:36;10.30;;;2.13;;